Time;durP1;ratioP1;P1;durP2;ratioP2;P2;SDS_P1;SDS_P2;PMS_P1;PMS_P2;Temp;Humidity;BMP_temperature;BMP_pressure;BME280_temperature;BME280_humidity;BME280_pressure;Samples;Min_cycle;Max_cycle;Signal;HPM_P1;HPM_P2
2022/12/27 00:00:39;;;;;;;35.55;3.47;;;;;;;;;;6147572;23;20031;-82
2022/12/27 00:03:13;;;;;;;45.60;4.07;;;;;;;;;;6150434;23;20068;-81
2022/12/27 00:05:44;;;;;;;27.40;3.20;;;;;;;;;;6149576;23;20029;-81
2022/12/27 00:08:17;;;;;;;33.47;3.50;;;;;;;;;;6150474;23;20052;-81
2022/12/27 00:10:44;;;;;;;30.92;3.50;;;;;;;;;;6123978;23;20031;-81
2022/12/27 00:13:11;;;;;;;23.52;2.88;;;;;;;;;;6150571;23;20032;-81
2022/12/27 00:15:45;;;;;;;24.13;2.83;;;;;;;;;;6148473;23;20486;-81
2022/12/27 00:18:12;;;;;;;22.33;3.78;;;;;;;;;;6148706;23;20072;-81
2022/12/27 00:20:39;;;;;;;16.40;2.83;;;;;;;;;;6149225;23;20401;-81
2022/12/27 00:23:13;;;;;;;25.05;3.58;;;;;;;;;;6149954;23;20065;-81
2022/12/27 00:25:40;;;;;;;19.42;3.33;;;;;;;;;;6149178;23;20096;-81
2022/12/27 00:28:14;;;;;;;24.52;2.80;;;;;;;;;;6148983;23;20075;-81
2022/12/27 00:30:41;;;;;;;;;;;;;;;;;;6147619;23;20128;-81
2022/12/27 00:33:09;;;;;;;26.38;2.88;;;;;;;;;;6149259;23;19963;-81
2022/12/27 00:35:49;;;;;;;24.73;2.80;;;;;;;;;;6148186;23;20031;-81
2022/12/27 00:38:16;;;;;;;31.17;2.95;;;;;;;;;;6148667;23;20029;-81
2022/12/27 00:40:50;;;;;;;19.42;2.70;;;;;;;;;;6149012;23;20028;-80
2022/12/27 00:43:17;;;;;;;19.05;2.58;;;;;;;;;;6148003;23;20113;-81
2022/12/27 00:45:44;;;;;;;24.80;3.05;;;;;;;;;;6148381;23;20068;-81
2022/12/27 00:48:18;;;;;;;16.55;2.00;;;;;;;;;;6148470;23;20033;-81
2022/12/27 00:50:45;;;;;;;16.48;2.53;;;;;;;;;;6148190;23;20021;-80
2022/12/27 00:53:12;;;;;;;22.38;3.20;;;;;;;;;;6149105;23;20029;-80
2022/12/27 00:55:46;;;;;;;26.05;2.75;;;;;;;;;;6148463;23;20622;-80
2022/12/27 00:58:13;;;;;;;24.92;2.47;;;;;;;;;;6148224;23;20061;-81
2022/12/27 01:00:40;;;;;;;29.75;2.88;;;;;;;;;;6147864;23;20021;-80
2022/12/27 01:03:15;;;;;;;33.92;3.95;;;;;;;;;;6149387;23;20399;-80
2022/12/27 01:05:42;;;;;;;;;;;;;;;;;;6150595;23;20129;-80
2022/12/27 01:08:15;;;;;;;28.67;3.53;;;;;;;;;;6148385;23;19924;-81
2022/12/27 01:10:42;;;;;;;22.33;2.78;;;;;;;;;;6148478;23;20161;-80
2022/12/27 01:13:09;;;;;;;36.92;3.22;;;;;;;;;;6148297;23;20120;-80
2022/12/27 01:15:43;;;;;;;43.75;3.60;;;;;;;;;;6149019;23;20096;-80
2022/12/27 01:18:10;;;;;;;30.80;4.05;;;;;;;;;;6148352;23;20027;-81
2022/12/27 01:20:37;;;;;;;20.60;2.90;;;;;;;;;;6148503;23;20053;-80
2022/12/27 01:23:11;;;;;;;30.73;3.40;;;;;;;;;;6149063;23;20029;-80
2022/12/27 01:25:45;;;;;;;29.15;4.53;;;;;;;;;;6148843;23;20064;-81
2022/12/27 01:28:12;;;;;;;44.63;4.13;;;;;;;;;;6123193;23;20068;-81
2022/12/27 01:30:39;;;;;;;45.20;3.83;;;;;;;;;;6149783;23;20065;-81
2022/12/27 01:33:13;;;;;;;35.05;4.20;;;;;;;;;;6148136;23;20643;-81
2022/12/27 01:35:40;;;;;;;29.80;3.80;;;;;;;;;;6145676;23;20123;-81
2022/12/27 01:38:14;;;;;;;26.98;3.63;;;;;;;;;;6124463;23;20021;-80
2022/12/27 01:40:41;;;;;;;21.23;4.05;;;;;;;;;;6146036;23;20116;-80
2022/12/27 01:43:32;;;;;;;21.83;3.05;;;;;;;;;;6148923;23;20052;-80
2022/12/27 01:46:05;;;;;;;22.02;2.45;;;;;;;;;;6137415;23;20540;-80
2022/12/27 01:48:32;;;;;;;24.85;4.05;;;;;;;;;;6121871;23;20032;-80
2022/12/27 01:51:06;;;;;;;28.33;3.20;;;;;;;;;;6147238;23;20105;-80
2022/12/27 01:53:36;;;;;;;20.65;2.75;;;;;;;;;;6145660;23;20049;-80
2022/12/27 01:56:28;;;;;;;24.35;2.30;;;;;;;;;;6147678;23;20026;-81
2022/12/27 01:58:58;;;;;;;20.33;2.33;;;;;;;;;;6146959;23;20101;-80
2022/12/27 02:01:34;;;;;;;22.67;2.90;;;;;;;;;;6149717;23;20068;-81
2022/12/27 02:04:10;;;;;;;19.95;2.88;;;;;;;;;;6150247;23;20025;-81
2022/12/27 02:06:44;;;;;;;30.27;3.47;;;;;;;;;;6150308;23;20021;-81
2022/12/27 02:09:25;;;;;;;25.02;2.40;;;;;;;;;;6150635;23;20096;-81
2022/12/27 02:12:00;;;;;;;20.73;2.80;;;;;;;;;;6151043;23;20096;-81
2022/12/27 02:14:37;;;;;;;24.00;2.53;;;;;;;;;;6149358;23;20021;-81
2022/12/27 02:17:12;;;;;;;39.70;3.33;;;;;;;;;;6150884;23;20057;-81
2022/12/27 02:19:48;;;;;;;20.58;2.72;;;;;;;;;;6150014;23;20017;-81
2022/12/27 02:25:45;;;;;;;21.63;3.25;;;;;;;;;;6149678;23;20056;-81
2022/12/27 02:28:12;;;;;;;25.90;2.75;;;;;;;;;;6149733;23;20083;-81
2022/12/27 02:30:47;;;;;;;23.67;2.65;;;;;;;;;;6147346;23;20045;-80
2022/12/27 02:33:18;;;;;;;34.47;4.00;;;;;;;;;;6150275;23;20021;-80
2022/12/27 02:35:50;;;;;;;21.42;2.60;;;;;;;;;;6147971;23;20067;-80
2022/12/27 02:38:27;;;;;;;18.80;2.58;;;;;;;;;;6149847;23;20033;-80
2022/12/27 02:55:18;;;;;;;25.60;3.35;;;;;;;;;;6149214;23;20053;-80
2022/12/27 02:58:07;;;;;;;29.55;4.40;;;;;;;;;;6150626;23;20394;-80
2022/12/27 03:03:42;;;;;;;31.52;3.72;;;;;;;;;;6150574;23;20030;-80
2022/12/27 03:06:41;;;;;;;23.98;3.70;;;;;;;;;;6149410;23;20055;-80
2022/12/27 03:09:11;;;;;;;32.17;5.05;;;;;;;;;;6151254;23;20390;-80
2022/12/27 03:17:41;;;;;;;27.13;2.75;;;;;;;;;;6150563;23;20045;-80
2022/12/27 03:25:51;;;;;;;21.33;3.30;;;;;;;;;;6149290;23;20028;-80
2022/12/27 03:34:49;;;;;;;40.85;4.97;;;;;;;;;;6147889;23;20041;-81
2022/12/27 03:40:13;;;;;;;21.80;3.30;;;;;;;;;;6148499;23;20129;-81
2022/12/27 03:48:30;;;;;;;26.75;4.40;;;;;;;;;;6150751;23;20025;-81
2022/12/27 03:51:04;;;;;;;35.58;5.90;;;;;;;;;;6148737;23;20108;-81
2022/12/27 03:53:35;;;;;;;35.95;4.05;;;;;;;;;;6149514;23;20021;-81
2022/12/27 03:56:02;;;;;;;25.45;3.83;;;;;;;;;;6149395;23;20068;-81
2022/12/27 03:58:36;;;;;;;32.08;3.97;;;;;;;;;;6149439;23;20076;-81
2022/12/27 04:01:03;;;;;;;33.47;4.90;;;;;;;;;;6149457;23;20096;-81
2022/12/27 04:03:37;;;;;;;35.13;3.83;;;;;;;;;;6151259;23;20021;-81
2022/12/27 04:06:05;;;;;;;47.83;4.03;;;;;;;;;;6145225;23;20040;-81
2022/12/27 04:36:50;;;;;;;48.90;5.32;;;;;;;;;;6119556;23;20100;-80
2022/12/27 04:39:24;;;;;;;32.78;4.03;;;;;;;;;;6119753;23;20092;-80
2022/12/27 04:56:06;;;;;;;41.15;4.13;;;;;;;;;;6118857;23;20026;-81
2022/12/27 04:58:34;;;;;;;31.58;4.60;;;;;;;;;;6093791;23;20053;-80
2022/12/27 05:03:53;;;;;;;33.83;4.53;;;;;;;;;;6119582;23;20026;-80
2022/12/27 05:06:27;;;;;;;40.13;4.93;;;;;;;;;;6119446;23;20104;-80
2022/12/27 05:14:35;;;;;;;40.75;5.28;;;;;;;;;;6119550;23;20022;-80
2022/12/27 05:17:08;;;;;;;38.65;5.72;;;;;;;;;;6119608;23;20105;-80
2022/12/27 05:19:35;;;;;;;42.90;5.13;;;;;;;;;;6120872;23;20088;-80
2022/12/27 05:27:47;;;;;;;51.47;6.80;;;;;;;;;;6119654;23;20129;-80
2022/12/27 05:30:21;;;;;;;48.80;7.65;;;;;;;;;;6094811;23;20064;-80
2022/12/27 05:32:48;;;;;;;51.33;6.82;;;;;;;;;;6120014;23;20096;-80
2022/12/27 05:35:35;;;;;;;37.35;5.13;;;;;;;;;;6134630;23;20053;-80
2022/12/27 05:38:09;;;;;;;45.90;6.00;;;;;;;;;;6151103;23;20088;-79
2022/12/27 05:40:43;;;;;;;52.22;6.53;;;;;;;;;;6151820;23;20136;-80
2022/12/27 05:43:17;;;;;;;45.15;5.68;;;;;;;;;;6152768;23;20056;-80
2022/12/27 05:45:44;;;;;;;50.90;8.50;;;;;;;;;;6152209;23;20109;-79
2022/12/27 05:48:18;;;;;;;61.90;7.20;;;;;;;;;;6149764;23;20096;-81
2022/12/27 05:50:45;;;;;;;48.72;6.47;;;;;;;;;;6151843;23;20097;-81
2022/12/27 05:53:12;;;;;;;49.33;6.68;;;;;;;;;;6151240;23;20132;-80
2022/12/27 05:55:56;;;;;;;65.90;6.63;;;;;;;;;;6150099;23;20096;-80
2022/12/27 05:58:26;;;;;;;64.25;6.35;;;;;;;;;;6126029;23;20404;-81
2022/12/27 06:01:00;;;;;;;67.32;7.72;;;;;;;;;;6150497;23;20028;-81
2022/12/27 06:03:34;;;;;;;61.45;7.05;;;;;;;;;;6150300;23;20025;-81
2022/12/27 06:06:02;;;;;;;;;;;;;;;;;;6151595;23;20032;-81
2022/12/27 06:08:29;;;;;;;63.70;7.15;;;;;;;;;;6150966;23;20004;-81
2022/12/27 06:11:02;;;;;;;61.70;7.55;;;;;;;;;;6148489;23;20026;-81
2022/12/27 06:13:30;;;;;;;59.58;6.97;;;;;;;;;;6149296;23;20022;-81
2022/12/27 06:16:04;;;;;;;51.20;6.55;;;;;;;;;;6150813;23;20049;-80
2022/12/27 06:18:33;;;;;;;52.90;7.00;;;;;;;;;;6149803;23;20033;-81
2022/12/27 06:21:01;;;;;;;47.83;6.80;;;;;;;;;;6150299;23;20022;-81
2022/12/27 06:23:35;;;;;;;50.88;7.85;;;;;;;;;;6126220;23;20065;-81
2022/12/27 06:26:11;;;;;;;47.17;6.22;;;;;;;;;;6123591;23;20108;-81
2022/12/27 06:28:45;;;;;;;57.05;7.50;;;;;;;;;;6150263;23;20025;-80
2022/12/27 06:31:13;;;;;;;52.22;6.70;;;;;;;;;;6149845;23;20021;-81
2022/12/27 06:33:40;;;;;;;44.88;6.28;;;;;;;;;;6149936;23;20029;-80
2022/12/27 06:36:29;;;;;;;47.03;6.78;;;;;;;;;;6141160;23;20033;-81
2022/12/27 06:38:56;;;;;;;42.58;6.32;;;;;;;;;;6150809;23;20416;-81
2022/12/27 06:41:30;;;;;;;35.33;7.78;;;;;;;;;;6148888;23;20092;-81
2022/12/27 06:43:58;;;;;;;39.17;5.35;;;;;;;;;;6148120;23;20132;-80
2022/12/27 06:46:25;;;;;;;34.63;5.90;;;;;;;;;;6150591;23;20021;-81
2022/12/27 06:48:58;;;;;;;45.90;5.28;;;;;;;;;;6150389;23;20025;-80
2022/12/27 06:51:25;;;;;;;61.10;6.95;;;;;;;;;;6150379;23;20028;-81
2022/12/27 06:53:59;;;;;;;46.80;7.57;;;;;;;;;;6147667;23;20049;-81
2022/12/27 06:56:26;;;;;;;54.25;6.38;;;;;;;;;;6149784;23;20545;-80
2022/12/27 06:58:53;;;;;;;34.22;5.07;;;;;;;;;;6146927;23;20064;-80
2022/12/27 07:01:27;;;;;;;32.80;5.72;;;;;;;;;;6150655;23;20461;-80
2022/12/27 07:03:56;;;;;;;46.42;5.10;;;;;;;;;;6149843;23;20482;-80
2022/12/27 07:06:30;;;;;;;41.90;5.95;;;;;;;;;;6148464;23;20063;-80
2022/12/27 07:08:59;;;;;;;35.20;4.90;;;;;;;;;;6148127;23;20025;-80
2022/12/27 07:11:26;;;;;;;52.83;7.22;;;;;;;;;;6148244;23;20026;-80
2022/12/27 07:13:59;;;;;;;37.10;5.53;;;;;;;;;;6148446;23;20097;-80
2022/12/27 07:16:27;;;;;;;33.70;4.90;;;;;;;;;;6149602;23;20096;-81
2022/12/27 07:19:02;;;;;;;38.70;5.68;;;;;;;;;;6150165;23;20021;-81
2022/12/27 07:21:29;;;;;;;29.67;4.38;;;;;;;;;;6149351;23;20028;-80
2022/12/27 07:23:56;;;;;;;35.88;6.13;;;;;;;;;;6147742;23;20435;-80
2022/12/27 07:26:38;;;;;;;35.47;5.20;;;;;;;;;;6148741;23;20088;-80
2022/12/27 07:29:18;;;;;;;35.88;5.18;;;;;;;;;;6148674;23;20332;-80
2022/12/27 07:31:45;;;;;;;32.90;5.55;;;;;;;;;;6149844;23;20109;-80
2022/12/27 07:34:20;;;;;;;43.35;4.65;;;;;;;;;;6148827;23;20029;-80
2022/12/27 07:36:54;;;;;;;32.45;4.88;;;;;;;;;;6147741;23;20029;-81
2022/12/27 07:39:27;;;;;;;46.75;5.78;;;;;;;;;;6150234;23;20351;-81
2022/12/27 07:41:54;;;;;;;40.40;4.55;;;;;;;;;;6123714;23;20176;-80
2022/12/27 07:44:22;;;;;;;27.65;5.13;;;;;;;;;;6150968;23;20029;-80
2022/12/27 07:46:55;;;;;;;39.28;4.63;;;;;;;;;;6149804;23;20406;-80
2022/12/27 07:49:22;;;;;;;38.70;5.45;;;;;;;;;;6151201;23;20037;-80
2022/12/27 07:51:56;;;;;;;35.92;5.93;;;;;;;;;;6148138;23;20060;-80
2022/12/27 07:54:23;;;;;;;43.58;4.72;;;;;;;;;;6150691;23;20057;-80
2022/12/27 07:56:50;;;;;;;28.42;4.03;;;;;;;;;;6151504;23;20049;-80
2022/12/27 07:59:26;;;;;;;32.92;4.93;;;;;;;;;;6149008;23;20396;-79
2022/12/27 08:02:05;;;;;;;25.83;4.15;;;;;;;;;;6150206;23;20021;-80
2022/12/27 08:04:39;;;;;;;48.28;5.03;;;;;;;;;;6148617;23;20459;-80
2022/12/27 08:07:06;;;;;;;33.97;3.95;;;;;;;;;;6149033;23;20029;-79
2022/12/27 08:09:41;;;;;;;37.28;4.50;;;;;;;;;;6148653;23;20056;-79
2022/12/27 08:12:09;;;;;;;25.65;3.67;;;;;;;;;;6145299;23;20040;-79
2022/12/27 08:14:36;;;;;;;;;;;;;;;;;;6149169;23;20068;-79
2022/12/27 08:17:15;;;;;;;30.90;4.22;;;;;;;;;;6149127;23;19956;-80
2022/12/27 08:19:43;;;;;;;23.23;3.75;;;;;;;;;;6149931;23;20021;-80
2022/12/27 08:22:16;;;;;;;27.52;3.47;;;;;;;;;;6147182;23;20068;-79
2022/12/27 08:24:43;;;;;;;28.60;3.55;;;;;;;;;;6149471;23;20071;-79
2022/12/27 08:27:11;;;;;;;23.30;3.85;;;;;;;;;;6148830;23;20124;-79
2022/12/27 08:29:45;;;;;;;20.63;3.08;;;;;;;;;;6149230;23;20075;-79
2022/12/27 08:32:12;;;;;;;26.55;3.95;;;;;;;;;;6148091;23;20065;-79
2022/12/27 08:34:53;;;;;;;20.73;2.60;;;;;;;;;;6149601;23;20021;-80
2022/12/27 08:37:27;;;;;;;12.05;2.33;;;;;;;;;;6148496;23;20128;-80
2022/12/27 08:40:00;;;;;;;31.58;4.35;;;;;;;;;;6149523;23;20112;-81
2022/12/27 08:42:29;;;;;;;28.33;4.20;;;;;;;;;;6145602;23;20030;-80
2022/12/27 08:44:56;;;;;;;25.70;3.20;;;;;;;;;;6142631;23;20084;-81
2022/12/27 08:47:30;;;;;;;24.15;3.40;;;;;;;;;;6145700;23;20057;-80
2022/12/27 08:49:57;;;;;;;26.13;3.13;;;;;;;;;;6148056;23;20155;-79
2022/12/27 08:52:31;;;;;;;22.25;3.70;;;;;;;;;;6147703;23;20021;-79
2022/12/27 08:54:58;;;;;;;28.88;4.47;;;;;;;;;;6146021;23;20482;-80
2022/12/27 08:57:26;;;;;;;33.38;4.88;;;;;;;;;;6146073;23;20018;-80
2022/12/27 08:59:59;;;;;;;38.08;5.03;;;;;;;;;;6146779;23;20406;-80
2022/12/27 09:02:26;;;;;;;23.27;3.28;;;;;;;;;;6146298;23;20041;-80
2022/12/27 09:05:00;;;;;;;17.77;3.58;;;;;;;;;;6146365;23;20414;-80
2022/12/27 09:07:27;;;;;;;31.80;4.53;;;;;;;;;;6147287;23;20451;-80
2022/12/27 09:10:01;;;;;;;21.50;4.13;;;;;;;;;;6146801;23;20025;-79
2022/12/27 09:12:28;;;;;;;29.33;2.63;;;;;;;;;;6147212;23;20057;-80
2022/12/27 09:15:02;;;;;;;17.38;3.35;;;;;;;;;;6143005;23;20025;-79
2022/12/27 09:17:29;;;;;;;19.95;3.13;;;;;;;;;;6144594;23;20053;-80
2022/12/27 09:20:04;;;;;;;20.60;3.60;;;;;;;;;;6146300;23;20402;-79
2022/12/27 09:22:31;;;;;;;21.90;3.20;;;;;;;;;;6146644;23;20060;-80
2022/12/27 09:24:58;;;;;;;22.50;3.55;;;;;;;;;;6147629;23;20092;-79
2022/12/27 09:27:33;;;;;;;30.13;4.45;;;;;;;;;;6145478;23;20439;-80
2022/12/27 09:30:00;;;;;;;24.23;3.60;;;;;;;;;;6144166;23;20080;-79
2022/12/27 09:32:34;;;;;;;28.15;3.55;;;;;;;;;;6146094;23;20104;-79
2022/12/27 09:35:02;;;;;;;23.13;3.05;;;;;;;;;;6144112;23;20036;-79
2022/12/27 09:37:43;;;;;;;28.05;3.35;;;;;;;;;;6146451;23;20049;-80
2022/12/27 09:40:14;;;;;;;24.00;3.00;;;;;;;;;;6145722;23;20105;-79
2022/12/27 09:42:56;;;;;;;22.13;3.22;;;;;;;;;;6144632;23;20029;-80
2022/12/27 09:45:47;;;;;;;26.05;3.30;;;;;;;;;;6123673;23;20029;-80
2022/12/27 09:48:36;;;;;;;21.50;3.20;;;;;;;;;;6118808;23;20033;-80
2022/12/27 09:51:31;;;;;;;21.00;3.20;;;;;;;;;;6145773;23;20041;-80
2022/12/27 09:54:10;;;;;;;25.40;3.53;;;;;;;;;;6147286;23;20116;-79
2022/12/27 09:56:37;;;;;;;18.98;4.10;;;;;;;;;;6146505;23;20060;-80
2022/12/27 09:59:33;;;;;;;25.90;3.17;;;;;;;;;;6146664;23;20022;-80
2022/12/27 10:02:21;;;;;;;25.92;4.18;;;;;;;;;;6144651;23;20036;-79
2022/12/27 10:04:49;;;;;;;20.90;2.63;;;;;;;;;;6143057;23;20057;-78
2022/12/27 10:07:45;;;;;;;24.42;3.67;;;;;;;;;;6143061;23;20026;-79
2022/12/27 10:10:13;;;;;;;23.73;3.78;;;;;;;;;;6117362;23;20109;-79
2022/12/27 10:12:59;;;;;;;16.45;3.42;;;;;;;;;;6145960;23;20048;-80
2022/12/27 10:15:47;;;;;;;16.80;3.55;;;;;;;;;;6144573;23;20104;-80
2022/12/27 10:18:39;;;;;;;18.90;3.10;;;;;;;;;;6147706;23;20111;-79
2022/12/27 10:21:20;;;;;;;23.90;3.88;;;;;;;;;;6148586;23;20033;-80
2022/12/27 10:24:01;;;;;;;17.77;2.92;;;;;;;;;;6150085;23;20463;-79
2022/12/27 10:26:28;;;;;;;22.88;2.80;;;;;;;;;;6149255;23;20399;-80
2022/12/27 10:29:03;;;;;;;21.95;3.03;;;;;;;;;;6145803;23;20100;-80
2022/12/27 10:31:31;;;;;;;17.77;3.42;;;;;;;;;;6147733;23;20108;-80
2022/12/27 10:33:59;;;;;;;15.90;2.42;;;;;;;;;;6147968;23;20603;-80
2022/12/27 10:36:58;;;;;;;16.50;3.22;;;;;;;;;;6147239;23;20100;-80
2022/12/27 10:39:34;;;;;;;14.93;3.42;;;;;;;;;;6147514;23;20113;-80
2022/12/27 10:42:01;;;;;;;29.60;3.50;;;;;;;;;;6121351;23;20025;-80
2022/12/27 10:44:35;;;;;;;19.35;4.35;;;;;;;;;;6147994;23;20108;-79
2022/12/27 10:47:02;;;;;;;23.88;3.55;;;;;;;;;;6147363;23;20836;-80
2022/12/27 10:49:34;;;;;;;25.25;4.05;;;;;;;;;;6146704;23;20220;-80
2022/12/27 10:52:08;;;;;;;21.95;3.08;;;;;;;;;;6145764;23;20515;-80
2022/12/27 10:55:08;;;;;;;25.27;4.53;;;;;;;;;;6147820;23;20060;-80
2022/12/27 10:57:42;;;;;;;22.02;3.25;;;;;;;;;;6146367;23;20064;-80
2022/12/27 11:00:13;;;;;;;20.27;3.53;;;;;;;;;;6145701;23;20036;-80
2022/12/27 11:02:50;;;;;;;14.85;2.72;;;;;;;;;;6147424;23;20152;-80
2022/12/27 11:05:28;;;;;;;17.35;3.28;;;;;;;;;;6144541;23;20032;-80
2022/12/27 11:07:56;;;;;;;23.10;3.47;;;;;;;;;;6146236;23;20025;-81
2022/12/27 11:10:30;;;;;;;24.05;3.40;;;;;;;;;;6148003;23;20101;-80
2022/12/27 11:12:57;;;;;;;24.98;3.85;;;;;;;;;;6121608;23;20097;-80
2022/12/27 11:15:35;;;;;;;20.00;3.15;;;;;;;;;;6148282;23;20104;-80
2022/12/27 11:18:16;;;;;;;22.50;3.22;;;;;;;;;;6145662;23;20057;-80
2022/12/27 11:20:54;;;;;;;22.48;3.15;;;;;;;;;;6147220;23;20071;-79
2022/12/27 11:23:23;;;;;;;21.58;3.47;;;;;;;;;;6145379;23;20527;-79
2022/12/27 11:25:58;;;;;;;20.45;2.97;;;;;;;;;;6146676;23;20049;-79
2022/12/27 11:28:33;;;;;;;19.48;3.17;;;;;;;;;;6146949;23;20717;-80
2022/12/27 11:31:07;;;;;;;12.30;2.70;;;;;;;;;;6150249;23;20478;-79
2022/12/27 11:33:38;;;;;;;24.20;4.53;;;;;;;;;;6148621;23;20630;-79
2022/12/27 11:36:06;;;;;;;17.83;2.00;;;;;;;;;;6149008;23;20033;-80
2022/12/27 11:38:49;;;;;;;17.02;2.85;;;;;;;;;;6150292;23;20096;-80
2022/12/27 11:41:21;;;;;;;19.98;2.97;;;;;;;;;;6149876;23;20127;-80
2022/12/27 11:44:24;;;;;;;21.73;3.65;;;;;;;;;;6149012;23;20021;-79
2022/12/27 11:47:10;;;;;;;25.52;3.13;;;;;;;;;;6131579;23;20104;-79
2022/12/27 11:50:04;;;;;;;22.73;3.35;;;;;;;;;;6150232;23;20017;-79
2022/12/27 11:52:46;;;;;;;17.15;3.30;;;;;;;;;;6125616;23;20021;-80
2022/12/27 11:55:38;;;;;;;13.90;3.10;;;;;;;;;;6146799;23;20119;-80
2022/12/27 11:58:15;;;;;;;14.55;2.42;;;;;;;;;;6147610;23;20056;-79
2022/12/27 12:00:45;;;;;;;17.38;2.83;;;;;;;;;;6148179;23;20033;-80
2022/12/27 12:03:12;;;;;;;22.02;3.50;;;;;;;;;;6147735;23;20399;-79
2022/12/27 12:05:51;;;;;;;15.50;2.83;;;;;;;;;;6146913;23;20463;-79
2022/12/27 12:08:26;;;;;;;24.38;3.42;;;;;;;;;;6146584;23;20076;-79
2022/12/27 12:11:00;;;;;;;16.17;3.10;;;;;;;;;;6146021;23;20123;-79
2022/12/27 12:13:50;;;;;;;16.85;3.97;;;;;;;;;;6147468;23;20565;-80
2022/12/27 12:16:44;;;;;;;22.38;3.75;;;;;;;;;;6146400;23;20026;-80
2022/12/27 12:19:35;;;;;;;18.80;3.60;;;;;;;;;;6146080;23;20033;-80
2022/12/27 12:22:22;;;;;;;17.40;3.92;;;;;;;;;;6143366;23;20501;-79
2022/12/27 12:25:08;;;;;;;23.85;3.38;;;;;;;;;;6146078;23;20132;-80
2022/12/27 12:28:01;;;;;;;17.77;4.07;;;;;;;;;;6145316;23;20021;-79
2022/12/27 12:30:31;;;;;;;26.60;4.25;;;;;;;;;;6147695;23;20498;-79
2022/12/27 12:33:23;;;;;;;14.50;3.53;;;;;;;;;;6144195;23;20025;-79
2022/12/27 12:36:09;;;;;;;23.83;4.20;;;;;;;;;;6125448;23;20166;-79
2022/12/27 12:38:45;;;;;;;16.77;3.90;;;;;;;;;;6144906;23;20359;-80
2022/12/27 12:41:43;;;;;;;17.42;3.05;;;;;;;;;;6149515;23;20079;-79
2022/12/27 12:44:29;;;;;;;17.17;3.17;;;;;;;;;;6161565;23;20424;-80
2022/12/27 12:47:23;;;;;;;25.02;3.70;;;;;;;;;;6162858;23;20025;-80
2022/12/27 12:50:02;;;;;;;16.95;3.25;;;;;;;;;;6158198;23;20025;-79
2022/12/27 12:52:43;;;;;;;18.08;2.22;;;;;;;;;;6160453;23;20033;-80
2022/12/27 12:55:34;;;;;;;17.52;2.70;;;;;;;;;;6155272;23;20021;-79
2022/12/27 12:58:13;;;;;;;16.83;3.17;;;;;;;;;;6121207;23;20100;-79
2022/12/27 13:00:46;;;;;;;17.23;2.83;;;;;;;;;;6145952;23;20048;-79
2022/12/27 13:03:38;;;;;;;12.45;3.33;;;;;;;;;;6142748;23;20047;-79
2022/12/27 13:06:24;;;;;;;17.65;3.00;;;;;;;;;;6146882;23;20026;-79
2022/12/27 13:08:57;;;;;;;14.95;2.22;;;;;;;;;;6144817;23;20410;-80
2022/12/27 13:11:33;;;;;;;17.40;3.25;;;;;;;;;;6147764;23;20025;-79
2022/12/27 13:14:10;;;;;;;20.75;3.92;;;;;;;;;;6145617;23;20463;-79
2022/12/27 13:16:46;;;;;;;18.27;3.03;;;;;;;;;;6147129;23;20026;-80
2022/12/27 13:19:36;;;;;;;17.13;3.95;;;;;;;;;;6146154;23;20278;-79
2022/12/27 13:22:19;;;;;;;16.10;2.78;;;;;;;;;;6144748;23;20052;-79
2022/12/27 13:24:58;;;;;;;15.15;2.88;;;;;;;;;;6145915;23;20030;-77
2022/12/27 13:27:34;;;;;;;19.65;2.88;;;;;;;;;;6144971;23;20029;-79
2022/12/27 13:30:15;;;;;;;13.50;3.50;;;;;;;;;;6142886;23;20096;-79
2022/12/27 13:32:57;;;;;;;19.27;3.65;;;;;;;;;;6146892;23;20064;-79
2022/12/27 13:35:30;;;;;;;20.10;3.28;;;;;;;;;;6147397;23;20096;-78
2022/12/27 13:38:37;;;;;;;20.75;3.72;;;;;;;;;;6148760;23;20097;-79
2022/12/27 13:41:23;;;;;;;21.33;4.00;;;;;;;;;;6113533;23;20105;-78
2022/12/27 13:44:22;;;;;;;22.08;3.35;;;;;;;;;;6147716;23;20021;-78
2022/12/27 13:46:55;;;;;;;16.35;3.55;;;;;;;;;;6146576;23;20479;-79
2022/12/27 13:49:48;;;;;;;19.38;3.15;;;;;;;;;;6148668;23;20025;-79
2022/12/27 13:52:38;;;;;;;26.13;3.55;;;;;;;;;;6146901;23;20454;-78
2022/12/27 13:55:25;;;;;;;25.23;3.60;;;;;;;;;;6139917;23;20049;-79
2022/12/27 13:58:10;;;;;;;15.52;3.90;;;;;;;;;;6149508;23;20629;-78
2022/12/27 14:01:03;;;;;;;24.73;3.85;;;;;;;;;;6148275;23;20467;-79
2022/12/27 14:03:56;;;;;;;22.85;3.72;;;;;;;;;;6149066;23;20108;-79
2022/12/27 14:06:44;;;;;;;23.25;3.60;;;;;;;;;;6149076;23;20100;-79
2022/12/27 14:09:24;;;;;;;23.27;3.30;;;;;;;;;;6150278;23;20049;-78
2022/12/27 14:12:00;;;;;;;18.63;2.67;;;;;;;;;;6142615;23;20030;-78
2022/12/27 14:14:29;;;;;;;16.65;3.03;;;;;;;;;;6145148;23;20061;-78
2022/12/27 14:17:14;;;;;;;29.67;4.15;;;;;;;;;;6146208;23;20044;-78
2022/12/27 14:20:27;;;;;;;16.85;2.60;;;;;;;;;;6147366;23;20104;-78
2022/12/27 14:23:21;;;;;;;30.98;3.83;;;;;;;;;;6052549;23;20567;-79
2022/12/27 14:26:08;;;;;;;16.13;2.60;;;;;;;;;;6054530;23;20031;-79
2022/12/27 14:29:15;;;;;;;21.02;2.83;;;;;;;;;;6113042;23;20076;-79
2022/12/27 14:32:01;;;;;;;17.65;3.17;;;;;;;;;;6145179;23;20026;-79
2022/12/27 14:34:54;;;;;;;32.63;4.03;;;;;;;;;;6139179;23;20108;-79
2022/12/27 14:37:55;;;;;;;26.55;3.38;;;;;;;;;;6138120;23;20113;-79
2022/12/27 14:40:56;;;;;;;23.27;3.58;;;;;;;;;;6145789;23;20021;-79
2022/12/27 14:43:31;;;;;;;19.10;3.10;;;;;;;;;;6147326;23;20349;-78
2022/12/27 14:46:24;;;;;;;21.20;3.47;;;;;;;;;;6147745;23;20076;-78
2022/12/27 14:49:23;;;;;;;18.65;2.85;;;;;;;;;;6144673;23;20067;-79
2022/12/27 14:52:12;;;;;;;20.23;2.83;;;;;;;;;;6113432;23;20064;-78
2022/12/27 14:55:02;;;;;;;13.43;2.95;;;;;;;;;;6144921;23;20100;-79
2022/12/27 14:57:54;;;;;;;21.58;3.80;;;;;;;;;;6119536;23;20443;-79
2022/12/27 15:00:27;;;;;;;22.75;3.40;;;;;;;;;;6138239;23;20033;-78
2022/12/27 15:03:13;;;;;;;29.17;3.50;;;;;;;;;;6144556;23;20096;-79
2022/12/27 15:05:46;;;;;;;20.95;3.17;;;;;;;;;;6146201;23;20029;-79
2022/12/27 15:08:34;;;;;;;15.82;2.92;;;;;;;;;;6145773;23;20561;-79
2022/12/27 15:11:14;;;;;;;18.23;3.05;;;;;;;;;;6144610;23;20192;-79
2022/12/27 15:13:59;;;;;;;19.52;3.10;;;;;;;;;;6145504;23;20362;-79
2022/12/27 15:16:32;;;;;;;22.10;2.85;;;;;;;;;;6144528;23;20056;-79
2022/12/27 15:19:12;;;;;;;13.93;2.58;;;;;;;;;;6144887;23;20103;-79
2022/12/27 15:22:05;;;;;;;22.05;3.53;;;;;;;;;;6145246;23;20092;-78
2022/12/27 15:24:48;;;;;;;23.92;3.13;;;;;;;;;;6144506;23;20060;-79
2022/12/27 15:27:21;;;;;;;17.95;3.10;;;;;;;;;;6145157;23;20088;-79
2022/12/27 15:29:57;;;;;;;16.38;3.08;;;;;;;;;;6142631;23;20045;-79
2022/12/27 15:32:31;;;;;;;20.55;3.10;;;;;;;;;;6144005;23;20124;-79
2022/12/27 15:35:16;;;;;;;19.98;2.85;;;;;;;;;;6145051;23;20395;-78
2022/12/27 15:37:52;;;;;;;16.20;2.85;;;;;;;;;;6143222;23;20025;-79
2022/12/27 15:40:32;;;;;;;19.70;3.17;;;;;;;;;;6121500;23;20031;-79
2022/12/27 15:42:59;;;;;;;19.85;2.95;;;;;;;;;;6144195;23;20112;-79
2022/12/27 15:45:52;;;;;;;21.75;3.47;;;;;;;;;;6147827;23;20391;-79
2022/12/27 15:48:28;;;;;;;21.48;3.40;;;;;;;;;;6145872;23;20305;-79
2022/12/27 15:51:23;;;;;;;15.50;3.03;;;;;;;;;;6145507;23;20021;-79
2022/12/27 15:53:53;;;;;;;16.90;3.08;;;;;;;;;;6145132;23;20032;-79
2022/12/27 15:56:43;;;;;;;26.33;3.25;;;;;;;;;;6145594;23;20137;-79
2022/12/27 15:59:29;;;;;;;10.52;2.92;;;;;;;;;;6145436;23;20029;-79
2022/12/27 16:02:14;;;;;;;26.80;3.40;;;;;;;;;;6144096;23;20061;-79
2022/12/27 16:04:45;;;;;;;19.00;2.90;;;;;;;;;;6144116;23;20027;-79
2022/12/27 16:07:35;;;;;;;17.23;3.35;;;;;;;;;;6146060;23;20104;-78
2022/12/27 16:10:21;;;;;;;27.02;3.45;;;;;;;;;;6146150;23;20080;-78
2022/12/27 16:12:55;;;;;;;22.10;3.53;;;;;;;;;;6145800;23;20022;-78
2022/12/27 16:15:34;;;;;;;28.40;3.75;;;;;;;;;;6146555;23;20510;-78
2022/12/27 16:18:27;;;;;;;27.08;4.93;;;;;;;;;;6146185;23;20028;-78
2022/12/27 16:21:10;;;;;;;20.63;3.80;;;;;;;;;;6147045;23;20384;-78
2022/12/27 16:23:44;;;;;;;22.05;3.38;;;;;;;;;;6144612;23;20112;-78
2022/12/27 16:26:14;;;;;;;22.95;3.05;;;;;;;;;;6146060;23;20040;-79
2022/12/27 16:28:50;;;;;;;24.90;3.47;;;;;;;;;;6146230;23;20021;-79
2022/12/27 16:31:28;;;;;;;17.13;3.10;;;;;;;;;;6144388;23;20021;-79
2022/12/27 16:33:56;;;;;;;23.13;3.88;;;;;;;;;;6146749;23;20113;-80
2022/12/27 16:36:44;;;;;;;19.75;3.45;;;;;;;;;;6145952;23;20108;-80
2022/12/27 16:39:18;;;;;;;;;;;;;;;;;;6147770;23;20055;-79
2022/12/27 16:41:54;;;;;;;32.00;3.75;;;;;;;;;;6148038;23;19995;-79
2022/12/27 16:44:44;;;;;;;20.75;3.03;;;;;;;;;;6146533;23;20053;-79
2022/12/27 16:47:11;;;;;;;21.48;3.15;;;;;;;;;;6146812;23;20025;-79
2022/12/27 16:49:45;;;;;;;23.65;3.33;;;;;;;;;;6146888;23;20028;-79
2022/12/27 16:52:12;;;;;;;;;;;;;;;;;;6145203;23;20025;-79
2022/12/27 16:54:54;;;;;;;33.53;4.07;;;;;;;;;;6147315;23;19921;-79
2022/12/27 16:57:27;;;;;;;34.97;4.03;;;;;;;;;;6146341;23;20534;-79
2022/12/27 16:59:54;;;;;;;24.95;4.05;;;;;;;;;;6146607;23;20059;-79
2022/12/27 17:02:31;;;;;;;22.98;3.50;;;;;;;;;;6146217;23;20061;-80
2022/12/27 17:05:00;;;;;;;25.67;3.20;;;;;;;;;;6142802;23;20455;-80
2022/12/27 17:07:35;;;;;;;28.88;3.75;;;;;;;;;;6144494;23;20467;-79